Time;durP1;ratioP1;P1;durP2;ratioP2;P2;SDS_P1;SDS_P2;PMS_P1;PMS_P2;Temp;Humidity;BMP_temperature;BMP_pressure;BME280_temperature;BME280_humidity;BME280_pressure;Samples;Min_cycle;Max_cycle;Signal;HPM_P1;HPM_P2
2023/03/19 00:01:05;;;;;;;30.60;16.60;;;;;;;6.31;45.31;100253.57;103624;1247;137765;-72
2023/03/19 00:03:42;;;;;;;28.70;16.10;;;;;;;6.28;45.32;100247.55;103902;1252;112510;-72
2023/03/19 00:06:21;;;;;;;30.60;15.80;;;;;;;6.25;45.42;100247.60;103565;1252;138104;-72
2023/03/19 00:08:49;;;;;;;35.00;17.00;;;;;;;6.22;45.56;100241.43;103620;1251;97768;-71
2023/03/19 00:11:16;;;;;;;29.20;15.90;;;;;;;6.20;45.64;100245.59;103651;1251;109210;-72
2023/03/19 00:13:53;;;;;;;30.60;16.60;;;;;;;6.18;45.55;100243.58;103604;1248;137992;-72
2023/03/19 00:16:20;;;;;;;30.00;16.10;;;;;;;6.16;45.58;100244.45;103574;1254;112177;-72
2023/03/19 00:18:48;;;;;;;26.80;15.80;;;;;;;6.14;45.75;100238.63;103613;1248;138620;-71
2023/03/19 00:21:19;;;;;;;28.70;15.60;;;;;;;6.12;45.83;100241.59;103667;1250;98600;-71
2023/03/19 00:23:47;;;;;;;33.40;17.00;;;;;;;6.10;45.64;100236.42;103447;1253;137920;-72
2023/03/19 00:26:14;;;;;;;34.70;16.70;;;;;;;6.08;45.93;100233.70;103663;1254;97848;-72
2023/03/19 00:28:42;;;;;;;32.70;17.60;;;;;;;6.06;45.74;100233.02;103991;1248;112000;-72
2023/03/19 00:31:13;;;;;;;36.10;16.80;;;;;;;6.04;45.94;100232.54;104076;1253;138278;-72
2023/03/19 00:33:40;;;;;;;33.00;16.60;;;;;;;6.02;45.91;100234.29;103817;1248;98205;-73
2023/03/19 00:36:29;;;;;;;29.70;16.80;;;;;;;6.00;46.14;100240.02;103645;1247;137575;-71
2023/03/19 00:38:59;;;;;;;30.10;16.40;;;;;;;5.98;46.23;100234.52;103709;1248;97800;-72
2023/03/19 00:41:27;;;;;;;30.50;16.30;;;;;;;5.95;46.23;100237.51;103657;1251;112906;-71
2023/03/19 00:44:06;;;;;;;39.40;16.60;;;;;;;5.91;46.23;100238.73;103560;1249;138102;-71
2023/03/19 00:46:39;;;;;;;28.20;16.20;;;;;;;5.89;46.37;100240.64;104853;1248;96099;-72
2023/03/19 00:49:17;;;;;;;33.20;18.00;;;;;;;5.86;46.30;100236.38;103578;1248;138219;-71
2023/03/19 00:51:46;;;;;;;28.40;16.60;;;;;;;5.83;46.50;100234.01;103568;1248;97856;-70
2023/03/19 00:54:14;;;;;;;31.30;17.10;;;;;;;5.80;46.55;100232.15;103686;1253;137843;-67
2023/03/19 00:56:44;;;;;;;32.50;17.70;;;;;;;5.78;46.74;100230.63;103669;1253;108126;-73
2023/03/19 00:59:14;;;;;;;33.20;17.40;;;;;;;5.74;46.80;100233.42;103426;1254;97829;-72
2023/03/19 01:01:42;;;;;;;33.10;16.80;;;;;;;5.72;46.84;100233.61;103627;1248;138439;-72
2023/03/19 01:04:11;;;;;;;32.40;17.10;;;;;;;5.69;46.80;100232.63;104395;1249;97768;-72
2023/03/19 01:06:39;;;;;;;28.40;17.30;;;;;;;5.66;46.76;100236.11;103474;1253;138189;-72
2023/03/19 01:09:16;;;;;;;30.50;16.40;;;;;;;5.63;46.98;100235.12;102200;1248;1003000;-72
2023/03/19 01:11:43;;;;;;;36.10;18.60;;;;;;;5.60;47.10;100238.95;103859;1253;298043;-72
2023/03/19 01:14:11;;;;;;;32.40;17.00;;;;;;;5.58;47.03;100239.16;103454;1248;108078;-72
2023/03/19 01:16:38;;;;;;;31.60;17.40;;;;;;;5.54;47.20;100233.14;103608;1253;97835;-72
2023/03/19 01:19:05;;;;;;;30.90;16.60;;;;;;;5.54;47.21;100235.74;103566;1251;138305;-72
2023/03/19 01:21:35;;;;;;;38.30;18.70;;;;;;;5.50;47.40;100234.40;103732;1248;105939;-71
2023/03/19 01:24:02;;;;;;;32.40;18.10;;;;;;;5.47;47.39;100234.79;103665;1248;138540;-71
2023/03/19 01:26:50;;;;;;;34.70;17.80;;;;;;;5.45;47.32;100240.33;103678;1249;108776;-72
2023/03/19 01:29:31;;;;;;;32.70;17.70;;;;;;;5.41;47.62;100244.69;103507;1251;97785;-72
2023/03/19 01:32:06;;;;;;;32.40;18.40;;;;;;;5.38;47.67;100249.02;103480;1251;137957;-72
2023/03/19 01:34:41;;;;;;;;;;;;;;;5.35;47.80;100251.98;104882;1248;107660;-73
2023/03/19 01:37:11;;;;;;;34.70;17.50;;;;;;;5.32;48.06;100249.77;103431;1254;124115;-72
2023/03/19 01:39:40;;;;;;;36.60;18.40;;;;;;;5.29;48.24;100252.75;103690;1253;109237;-72
2023/03/19 01:42:16;;;;;;;33.80;18.10;;;;;;;5.26;48.00;100254.34;103531;1253;138119;-73
2023/03/19 01:45:19;;;;;;;37.00;18.70;;;;;;;5.24;48.46;100253.67;103426;1251;112399;-72
2023/03/19 01:48:06;;;;;;;35.50;18.70;;;;;;;5.21;48.44;100252.66;103551;1251;138005;-72
2023/03/19 01:50:52;;;;;;;36.30;19.40;;;;;;;5.16;48.45;100246.48;103434;1254;97635;-72
2023/03/19 01:53:40;;;;;;;34.90;18.30;;;;;;;5.13;48.63;100247.38;103699;1251;108150;-72
2023/03/19 01:56:28;;;;;;;33.80;17.90;;;;;;;5.11;48.69;100245.35;103600;1250;97834;-72
2023/03/19 01:59:06;;;;;;;33.30;18.20;;;;;;;5.08;48.88;100246.60;103649;1250;112176;-72
2023/03/19 02:02:01;;;;;;;32.40;18.10;;;;;;;5.04;49.15;100249.05;103282;1247;1002632;-71
2023/03/19 02:04:30;;;;;;;34.70;18.20;;;;;;;5.01;49.23;100242.34;103252;1251;97791;-72
2023/03/19 02:07:08;;;;;;;34.30;18.70;;;;;;;4.98;49.40;100248.05;103218;1251;137983;-71
2023/03/19 02:09:36;;;;;;;36.00;18.40;;;;;;;4.95;49.33;100246.19;103536;1250;97883;-74
2023/03/19 02:12:04;;;;;;;30.30;18.60;;;;;;;4.93;49.28;100241.55;103420;1250;138383;-72
2023/03/19 02:14:32;;;;;;;32.90;18.00;;;;;;;4.91;49.53;100244.52;104035;1253;108774;-72
2023/03/19 02:17:11;;;;;;;36.30;19.70;;;;;;;4.88;49.66;100237.14;103399;1255;99896;-73
2023/03/19 02:19:47;;;;;;;34.60;18.40;;;;;;;4.84;49.67;100238.70;103405;1259;138277;-72
2023/03/19 02:22:16;;;;;;;35.10;18.10;;;;;;;4.81;49.88;100234.08;103485;1254;97784;-72
2023/03/19 02:24:51;;;;;;;34.90;18.90;;;;;;;4.79;49.87;100234.44;103959;1250;138831;-72
2023/03/19 02:27:20;;;;;;;33.40;17.70;;;;;;;4.78;49.89;100228.77;103615;1257;108000;-72
2023/03/19 02:29:50;;;;;;;35.20;18.80;;;;;;;4.75;50.11;100229.84;103514;1255;97659;-72
2023/03/19 02:32:19;;;;;;;31.10;16.90;;;;;;;4.73;50.05;100229.86;103453;1251;106853;-72
2023/03/19 02:34:46;;;;;;;31.70;18.10;;;;;;;4.71;50.08;100232.46;103452;1251;97791;-70
2023/03/19 02:37:18;;;;;;;33.10;18.40;;;;;;;4.69;50.20;100233.52;103292;1256;137779;-73
2023/03/19 02:39:53;;;;;;;35.80;18.10;;;;;;;4.69;50.21;100240.41;103460;1251;109338;-72
2023/03/19 02:42:26;;;;;;;32.90;18.20;;;;;;;4.67;50.32;100241.80;103413;1255;137975;-72
2023/03/19 02:44:53;;;;;;;34.40;18.60;;;;;;;4.67;50.21;100244.38;103423;1255;108290;-72
2023/03/19 02:47:21;;;;;;;33.10;18.00;;;;;;;4.65;50.51;100242.13;103491;1253;97848;-72
2023/03/19 02:49:48;;;;;;;36.90;18.60;;;;;;;4.63;50.33;100240.77;103457;1255;138375;-72
2023/03/19 02:52:16;;;;;;;36.60;19.20;;;;;;;4.63;50.65;100250.25;103517;1253;111300;-70
2023/03/19 02:54:43;;;;;;;34.50;18.30;;;;;;;4.60;50.55;100243.90;103381;1250;138209;-72
2023/03/19 02:57:12;;;;;;;34.40;17.40;;;;;;;4.59;50.39;100245.11;103599;1254;108243;-73
2023/03/19 02:59:40;;;;;;;35.10;18.30;;;;;;;4.58;50.62;100246.69;103468;1255;97794;-73
2023/03/19 03:02:08;;;;;;;33.80;18.00;;;;;;;4.55;50.60;100247.05;103424;1251;137629;-74
2023/03/19 03:04:37;;;;;;;34.50;18.10;;;;;;;4.54;50.72;100253.60;103521;1253;107417;-74
2023/03/19 03:07:05;;;;;;;30.00;17.50;;;;;;;4.52;50.86;100254.65;103505;1253;137766;-74
2023/03/19 03:09:32;;;;;;;37.40;18.50;;;;;;;4.50;50.83;100251.92;103451;1253;108345;-74
2023/03/19 03:11:59;;;;;;;34.30;18.50;;;;;;;4.49;51.04;100252.44;100259;1251;1004052;-74
2023/03/19 03:14:27;;;;;;;36.40;19.20;;;;;;;4.48;50.81;100249.50;103508;1251;111117;-74
2023/03/19 03:16:56;;;;;;;33.40;17.00;;;;;;;4.47;50.99;100244.68;103614;1251;107795;-74
2023/03/19 03:19:23;;;;;;;37.50;18.50;;;;;;;4.46;50.98;100248.48;103836;1251;137916;-72
2023/03/19 03:21:51;;;;;;;32.90;18.40;;;;;;;4.46;50.93;100251.41;103649;1253;107601;-73
2023/03/19 03:24:18;;;;;;;33.70;17.40;;;;;;;4.45;51.13;100248.67;103368;1256;138096;-72
2023/03/19 03:26:45;;;;;;;37.20;19.40;;;;;;;4.44;51.24;100250.23;103693;1251;111945;-72
2023/03/19 03:29:14;;;;;;;34.60;18.60;;;;;;;4.43;50.98;100248.51;104849;1250;107259;-71
2023/03/19 03:31:41;;;;;;;33.30;18.50;;;;;;;4.43;50.94;100246.96;104020;1253;139306;-72
2023/03/19 03:34:09;;;;;;;34.80;18.60;;;;;;;4.42;51.28;100244.73;104069;1251;107987;-72
2023/03/19 03:36:36;;;;;;;34.40;17.80;;;;;;;4.42;51.20;100247.14;104275;1250;138465;-72
2023/03/19 03:39:04;;;;;;;33.10;17.60;;;;;;;4.41;51.19;100239.23;104005;1250;112364;-72
2023/03/19 03:41:31;;;;;;;41.70;18.30;;;;;;;4.39;51.06;100234.60;104388;1251;107290;-72
2023/03/19 03:43:59;;;;;;;33.70;17.50;;;;;;;4.40;51.15;100237.86;104415;1253;137776;-72
2023/03/19 03:46:27;;;;;;;34.60;18.40;;;;;;;4.40;51.08;100237.86;103874;1255;108639;-71
2023/03/19 03:48:55;;;;;;;32.70;17.50;;;;;;;4.40;51.24;100242.34;103545;1253;137789;-71
2023/03/19 03:51:25;;;;;;;35.50;18.10;;;;;;;4.40;51.38;100236.66;103807;1253;113255;-72
2023/03/19 03:53:53;;;;;;;34.90;18.50;;;;;;;4.39;51.14;100233.39;104166;1251;137922;-71
2023/03/19 03:56:20;;;;;;;36.80;18.30;;;;;;;4.39;51.30;100233.39;104599;1250;96137;-72
2023/03/19 03:58:47;;;;;;;34.30;17.30;;;;;;;4.39;51.30;100235.81;103615;1253;106763;-70
2023/03/19 04:01:16;;;;;;;33.40;18.10;;;;;;;4.37;51.19;100230.66;103674;1250;137837;-72
2023/03/19 04:03:44;;;;;;;29.70;16.90;;;;;;;4.36;51.29;100237.38;103862;1251;110246;-71
2023/03/19 04:06:15;;;;;;;36.10;17.80;;;;;;;4.34;51.34;100238.27;103624;1251;138699;-71
2023/03/19 04:08:43;;;;;;;33.50;18.70;;;;;;;4.31;51.23;100230.86;104188;1253;97884;-71
2023/03/19 04:11:11;;;;;;;40.10;18.80;;;;;;;4.30;51.33;100224.66;104457;1251;107707;-72
2023/03/19 04:13:38;;;;;;;36.60;18.50;;;;;;;4.30;51.35;100227.94;103866;1253;138709;-72
2023/03/19 04:16:06;;;;;;;31.50;18.20;;;;;;;4.28;51.51;100227.09;103691;1250;112542;-72
2023/03/19 04:18:34;;;;;;;36.20;18.20;;;;;;;4.27;51.62;100229.68;103728;1253;137763;-71
2023/03/19 04:21:02;;;;;;;32.10;18.20;;;;;;;4.24;51.62;100228.85;104212;1251;95738;-72
2023/03/19 04:23:29;;;;;;;36.30;18.30;;;;;;;4.22;51.63;100225.42;103801;1258;107704;-72
2023/03/19 04:26:01;;;;;;;32.90;17.90;;;;;;;4.20;51.74;100226.46;103478;1253;137830;-72
2023/03/19 04:28:30;;;;;;;35.90;16.90;;;;;;;4.16;51.68;100218.06;103542;1256;110870;-71
2023/03/19 04:31:02;;;;;;;33.90;17.50;;;;;;;4.15;51.65;100218.77;103805;1253;137902;-71
2023/03/19 04:33:31;;;;;;;34.90;18.40;;;;;;;4.14;51.76;100219.46;103611;1254;97786;-71
2023/03/19 04:35:59;;;;;;;33.80;17.20;;;;;;;4.13;51.84;100218.27;103487;1248;138407;-71
2023/03/19 04:38:27;;;;;;;32.70;17.90;;;;;;;4.12;51.88;100217.73;104229;1256;96885;-72
2023/03/19 04:40:58;;;;;;;33.90;18.10;;;;;;;4.10;51.97;100218.77;103633;1253;112291;-72
2023/03/19 04:43:27;;;;;;;34.10;17.20;;;;;;;4.08;52.08;100221.20;104844;1251;137746;-72
2023/03/19 04:45:54;;;;;;;35.10;18.00;;;;;;;4.06;52.15;100221.56;104641;1251;95989;-72
2023/03/19 04:48:22;;;;;;;32.60;17.40;;;;;;;4.04;52.13;100219.69;103354;1254;137875;-72
2023/03/19 04:50:52;;;;;;;34.20;18.00;;;;;;;4.02;52.19;100217.11;103489;1253;97807;-72
2023/03/19 04:53:20;;;;;;;31.70;17.10;;;;;;;4.01;52.35;100219.53;103811;1251;110922;-71
2023/03/19 04:55:48;;;;;;;34.90;18.30;;;;;;;4.00;52.31;100218.69;103342;1253;137877;-71
2023/03/19 04:58:16;;;;;;;33.10;17.60;;;;;;;4.01;52.28;100221.09;103509;1251;98164;-71
2023/03/19 05:00:47;;;;;;;33.70;18.50;;;;;;;4.03;52.10;100222.28;103450;1251;137739;-71
2023/03/19 05:03:17;;;;;;;33.30;18.30;;;;;;;4.04;52.16;100223.81;103383;1253;97883;-71
2023/03/19 05:05:45;;;;;;;29.90;17.40;;;;;;;4.06;52.36;100230.85;103572;1253;111150;-72
2023/03/19 05:08:12;;;;;;;31.40;18.50;;;;;;;4.07;52.17;100228.77;103453;1251;108406;-73
2023/03/19 05:10:40;;;;;;;32.00;17.90;;;;;;;4.12;52.24;100231.67;103536;1251;98242;-72
2023/03/19 05:13:08;;;;;;;34.00;17.30;;;;;;;4.14;52.14;100234.94;104344;1251;138762;-71
2023/03/19 05:15:41;;;;;;;37.10;18.10;;;;;;;4.17;52.06;100238.20;103519;1251;97864;-70
2023/03/19 05:18:09;;;;;;;36.20;19.00;;;;;;;4.20;52.03;100241.44;103653;1253;137810;-71
2023/03/19 05:20:39;;;;;;;32.50;17.40;;;;;;;4.27;52.02;100244.83;103615;1251;108517;-70
2023/03/19 05:23:10;;;;;;;30.20;17.70;;;;;;;4.36;51.90;100243.91;103541;1251;97788;-71
2023/03/19 05:25:45;;;;;;;34.10;17.80;;;;;;;4.57;51.88;100246.34;103416;1251;137908;-72
2023/03/19 05:28:15;;;;;;;32.40;18.50;;;;;;;4.94;51.25;100244.64;103614;1250;97746;-72
2023/03/19 05:30:43;;;;;;;30.40;17.30;;;;;;;5.48;50.30;100247.70;103363;1254;137930;-72
2023/03/19 05:33:17;;;;;;;34.40;17.90;;;;;;;6.33;49.23;100241.27;103491;1251;107910;-72
2023/03/19 05:35:48;;;;;;;31.10;18.10;;;;;;;7.54;47.98;100234.80;103541;1253;98262;-72
2023/03/19 05:38:20;;;;;;;28.30;17.40;;;;;;;9.05;46.17;100230.15;103791;1253;108345;-72
2023/03/19 05:40:54;;;;;;;30.70;17.20;;;;;;;10.34;44.12;100225.76;103642;1251;97797;-72
2023/03/19 05:43:32;;;;;;;26.90;17.10;;;;;;;11.50;42.36;100230.00;103730;1251;137933;-73
2023/03/19 05:46:00;;;;;;;26.30;16.30;;;;;;;12.43;40.32;100227.54;103460;1251;108591;-73
2023/03/19 05:48:29;;;;;;;28.00;17.00;;;;;;;13.31;39.46;100219.30;103398;1251;139034;-73
2023/03/19 05:50:58;;;;;;;30.30;17.20;;;;;;;14.20;38.15;100213.88;103810;1253;107493;-72
2023/03/19 05:53:30;;;;;;;24.90;17.20;;;;;;;14.95;36.47;100213.18;103412;1251;97975;-71
2023/03/19 05:56:16;;;;;;;26.10;17.50;;;;;;;15.75;35.47;100209.52;103507;1251;137871;-71
2023/03/19 05:59:10;;;;;;;27.80;17.90;;;;;;;16.58;34.14;100208.39;103607;1248;107654;-70
2023/03/19 06:01:39;;;;;;;24.20;16.70;;;;;;;17.08;33.42;100209.54;103443;1257;138136;-70
2023/03/19 06:04:07;;;;;;;29.30;17.60;;;;;;;17.40;32.30;100208.13;103417;1252;107999;-81
2023/03/19 06:06:35;;;;;;;24.60;17.30;;;;;;;17.69;31.87;100205.95;103363;1253;138339;-74
2023/03/19 06:09:02;;;;;;;24.60;16.90;;;;;;;18.11;31.90;100206.52;103486;1251;111842;-69
2023/03/19 06:11:35;;;;;;;28.50;17.90;;;;;;;18.61;31.36;100202.16;103479;1250;108537;-70
2023/03/19 06:14:23;;;;;;;27.80;17.80;;;;;;;19.08;30.28;100200.79;103560;1251;97820;-74
2023/03/19 06:17:08;;;;;;;24.40;16.50;;;;;;;19.16;29.06;100204.68;103525;1251;108152;-76
2023/03/19 06:19:35;;;;;;;25.50;16.80;;;;;;;18.92;28.58;100199.08;103358;1251;138232;-74
2023/03/19 06:22:04;;;;;;;28.30;17.80;;;;;;;18.49;29.53;100202.06;103398;1256;112053;-74
2023/03/19 06:24:32;;;;;;;25.70;16.40;;;;;;;18.00;29.76;100206.48;103233;1251;138504;-74
2023/03/19 06:27:00;;;;;;;28.70;17.40;;;;;;;17.76;29.79;100214.33;103593;1253;98568;-77
2023/03/19 06:29:28;;;;;;;28.40;17.40;;;;;;;17.92;29.99;100214.20;103440;1251;107656;-75
2023/03/19 06:31:59;;;;;;;30.00;17.70;;;;;;;18.49;29.78;100210.35;103278;1256;139106;-77
2023/03/19 06:34:38;;;;;;;31.00;18.10;;;;;;;19.25;28.73;100209.98;103478;1257;111360;-76
2023/03/19 06:37:06;;;;;;;28.00;17.30;;;;;;;19.97;28.12;100211.02;103276;1251;139073;-76
2023/03/19 06:39:33;;;;;;;27.40;17.40;;;;;;;20.47;27.71;100208.27;103560;1253;97807;-76
2023/03/19 06:42:01;;;;;;;28.90;18.10;;;;;;;21.20;27.10;100207.85;103570;1251;108842;-73
2023/03/19 06:44:28;;;;;;;26.10;17.50;;;;;;;21.83;26.17;100208.75;103446;1253;97756;-74
2023/03/19 06:46:56;;;;;;;28.50;18.70;;;;;;;22.44;25.59;100206.56;103551;1251;112516;-81
2023/03/19 06:49:23;;;;;;;23.20;17.00;;;;;;;22.95;24.83;100207.98;103379;1251;138939;-73
2023/03/19 06:51:51;;;;;;;24.50;17.00;;;;;;;23.13;24.64;100215.44;103539;1253;97785;-73
2023/03/19 06:54:18;;;;;;;26.00;17.10;;;;;;;23.20;24.53;100210.27;103258;1253;138655;-75
2023/03/19 06:56:46;;;;;;;26.50;17.50;;;;;;;23.36;24.59;100208.70;103543;1251;97773;-74
2023/03/19 06:59:13;;;;;;;25.20;17.40;;;;;;;23.21;24.18;100206.40;103291;1251;111242;-76
2023/03/19 07:01:40;;;;;;;26.90;17.10;;;;;;;22.83;24.18;100206.33;103402;1251;138307;-70
2023/03/19 07:04:08;;;;;;;28.80;17.30;;;;;;;22.49;24.23;100209.16;103439;1251;97986;-76
2023/03/19 07:06:35;;;;;;;24.90;16.70;;;;;;;22.23;24.25;100217.05;103298;1251;138296;-73
2023/03/19 07:09:03;;;;;;;28.00;17.60;;;;;;;21.91;24.57;100218.04;103476;1251;98236;-74
2023/03/19 07:11:30;;;;;;;26.10;16.60;;;;;;;21.56;24.67;100222.95;103463;1251;110566;-80
2023/03/19 07:14:01;;;;;;;28.50;18.30;;;;;;;21.06;24.34;100218.53;103358;1253;138746;-74
2023/03/19 07:16:28;;;;;;;25.50;17.00;;;;;;;20.29;24.46;100220.83;103390;1251;97787;-79
2023/03/19 07:18:55;;;;;;;29.30;18.40;;;;;;;19.80;24.87;100225.93;103162;1251;140378;-68
2023/03/19 07:21:23;;;;;;;26.60;17.20;;;;;;;19.65;25.14;100230.59;103289;1251;97087;-73
2023/03/19 07:23:50;;;;;;;24.00;16.60;;;;;;;19.77;25.65;100232.71;103415;1252;110587;-73
2023/03/19 07:26:18;;;;;;;28.00;18.80;;;;;;;19.98;25.64;100229.45;103350;1254;138480;-75
2023/03/19 07:28:47;;;;;;;25.70;17.00;;;;;;;20.54;25.57;100227.83;103444;1254;97730;-72
2023/03/19 07:31:15;;;;;;;26.10;16.80;;;;;;;21.45;24.49;100227.53;103341;1253;138449;-71
2023/03/19 07:33:43;;;;;;;26.70;17.50;;;;;;;21.90;23.65;100230.21;104909;1250;95969;-72
2023/03/19 07:36:12;;;;;;;23.40;16.60;;;;;;;22.14;23.83;100224.50;104814;1250;138155;-70
2023/03/19 07:38:39;;;;;;;27.60;17.50;;;;;;;22.73;24.30;100221.48;104035;1251;107710;-72
2023/03/19 07:41:07;;;;;;;26.00;16.50;;;;;;;23.42;23.67;100218.70;103475;1250;97839;-70
2023/03/19 07:43:34;;;;;;;26.60;17.00;;;;;;;24.13;22.94;100222.44;103409;1253;138716;-76
2023/03/19 07:46:05;;;;;;;29.30;17.80;;;;;;;24.67;22.85;100222.49;103498;1253;97794;-75
2023/03/19 07:48:32;;;;;;;27.30;17.00;;;;;;;25.16;22.18;100225.81;103298;1254;138363;-71
2023/03/19 07:50:59;;;;;;;23.20;16.40;;;;;;;25.48;22.04;100223.69;103465;1251;108099;-75
2023/03/19 07:53:27;;;;;;;27.50;16.50;;;;;;;25.67;21.82;100219.95;103465;1250;97787;-71
2023/03/19 07:55:54;;;;;;;24.70;17.40;;;;;;;25.91;21.36;100224.91;103280;1254;140071;-69
2023/03/19 07:58:21;;;;;;;23.60;15.80;;;;;;;26.22;21.33;100219.87;103389;1250;97721;-70
2023/03/19 08:00:49;;;;;;;21.80;16.40;;;;;;;26.21;20.93;100215.15;103267;1249;138611;-70
2023/03/19 08:03:16;;;;;;;23.70;16.10;;;;;;;26.24;20.64;100212.91;103334;1251;108001;-71
2023/03/19 08:05:44;;;;;;;21.00;15.80;;;;;;;26.69;21.35;100212.71;103624;1250;99142;-73
2023/03/19 08:08:12;;;;;;;22.00;16.10;;;;;;;27.20;21.49;100206.65;103348;1251;138050;-73
2023/03/19 08:10:39;;;;;;;21.70;16.00;;;;;;;27.63;21.29;100209.94;103487;1253;98205;-74
2023/03/19 08:13:07;;;;;;;22.00;16.10;;;;;;;27.69;20.62;100207.20;103338;1251;138718;-73
2023/03/19 08:15:35;;;;;;;21.00;15.10;;;;;;;27.71;20.97;100204.64;103376;1253;108195;-73
2023/03/19 08:18:04;;;;;;;22.90;16.60;;;;;;;27.87;20.64;100208.46;103514;1249;97813;-74
2023/03/19 08:20:31;;;;;;;24.90;16.20;;;;;;;27.60;20.34;100208.84;103513;1250;107727;-74
2023/03/19 08:22:59;;;;;;;22.10;15.60;;;;;;;27.15;20.79;100205.55;103381;1250;97884;-74
2023/03/19 08:25:31;;;;;;;23.70;15.70;;;;;;;26.99;21.15;100208.19;103482;1252;139633;-71
2023/03/19 08:27:58;;;;;;;22.00;16.10;;;;;;;27.17;21.32;100210.11;103441;1249;107893;-72
2023/03/19 08:30:25;;;;;;;24.60;15.90;;;;;;;27.04;20.69;100205.27;103463;1251;138378;-73
2023/03/19 08:32:52;;;;;;;20.50;16.20;;;;;;;26.50;21.02;100209.13;103496;1253;107597;-69
2023/03/19 08:35:20;;;;;;;21.50;14.30;;;;;;;26.31;21.24;100205.80;103550;1250;97982;-70
2023/03/19 08:37:47;;;;;;;22.30;15.20;;;;;;;26.19;20.65;100212.33;103513;1250;138096;-70
2023/03/19 08:40:15;;;;;;;22.50;15.90;;;;;;;25.84;20.74;100212.24;103575;1249;106695;-70
2023/03/19 08:42:42;;;;;;;22.10;15.10;;;;;;;25.34;21.19;100212.51;103883;1250;138349;-70
2023/03/19 08:45:14;;;;;;;23.00;15.10;;;;;;;24.95;21.91;100209.02;104489;1250;107766;-70
2023/03/19 08:47:41;;;;;;;22.10;15.50;;;;;;;24.74;21.84;100209.79;103513;1249;97861;-69
2023/03/19 08:50:11;;;;;;;23.70;16.20;;;;;;;24.51;21.96;100211.13;103423;1251;138371;-69
2023/03/19 08:52:38;;;;;;;24.70;14.80;;;;;;;24.19;22.01;100211.34;103383;1252;107606;-71
2023/03/19 08:55:07;;;;;;;22.50;14.80;;;;;;;23.81;22.61;100211.56;103519;1253;138140;-71
2023/03/19 08:57:35;;;;;;;18.70;14.10;;;;;;;23.50;22.54;100212.61;103597;1250;107654;-70
2023/03/19 09:00:04;;;;;;;21.00;15.10;;;;;;;23.21;23.12;100208.36;103558;1251;97794;-70
2023/03/19 09:02:31;;;;;;;20.40;15.40;;;;;;;23.33;23.27;100211.27;103696;1252;111516;-70
2023/03/19 09:04:59;;;;;;;19.30;13.10;;;;;;;23.51;23.23;100215.89;103611;1250;107959;-70
2023/03/19 09:07:26;;;;;;;15.70;12.10;;;;;;;23.15;22.84;100213.36;104221;1250;138164;-70
2023/03/19 09:09:53;;;;;;;18.60;12.70;;;;;;;22.57;23.06;100207.37;103612;1250;108890;-72
2023/03/19 09:12:21;;;;;;;18.60;12.60;;;;;;;22.05;23.26;100212.34;103492;1250;140133;-71
2023/03/19 09:14:48;;;;;;;17.40;12.50;;;;;;;21.64;23.90;100216.60;103558;1249;111097;-70
2023/03/19 09:17:17;;;;;;;20.50;12.80;;;;;;;21.65;24.00;100216.02;103570;1250;107411;-71
2023/03/19 09:19:44;;;;;;;17.60;12.30;;;;;;;21.75;24.11;100213.89;104012;1250;138302;-71
2023/03/19 09:22:11;;;;;;;17.70;11.70;;;;;;;21.91;24.17;100212.73;103545;1253;107728;-71
2023/03/19 09:24:38;;;;;;;18.40;12.90;;;;;;;22.23;24.33;100208.92;103417;1250;138316;-71
2023/03/19 09:27:07;;;;;;;21.60;12.40;;;;;;;22.70;24.20;100211.81;103565;1253;111219;-71
2023/03/19 09:29:34;;;;;;;18.20;11.10;;;;;;;23.05;23.97;100205.71;103498;1250;107159;-71
2023/03/19 09:32:01;;;;;;;15.00;11.20;;;;;;;23.36;23.72;100208.00;103573;1253;138109;-71
2023/03/19 09:34:28;;;;;;;17.20;11.20;;;;;;;23.69;23.68;100202.52;103621;1252;108457;-71
2023/03/19 09:36:56;;;;;;;15.80;11.60;;;;;;;23.99;23.36;100195.39;103514;1251;137222;-71
2023/03/19 09:39:23;;;;;;;16.60;12.20;;;;;;;24.03;23.07;100194.30;103570;1253;111219;-71
2023/03/19 09:42:03;;;;;;;17.10;11.60;;;;;;;24.10;23.19;100190.87;103570;1250;107090;-71
2023/03/19 09:44:34;;;;;;;16.80;11.30;;;;;;;24.30;23.02;100192.05;103587;1250;97816;-71
2023/03/19 09:47:12;;;;;;;16.80;11.30;;;;;;;24.57;22.84;100189.30;103672;1253;107956;-71
2023/03/19 09:49:43;;;;;;;14.90;11.60;;;;;;;24.61;22.49;100188.34;103381;1254;138375;-71
2023/03/19 09:52:21;;;;;;;16.80;11.20;;;;;;;24.37;22.42;100191.30;103619;1251;110978;-82
2023/03/19 09:54:52;;;;;;;15.80;11.00;;;;;;;24.16;22.74;100186.63;103461;1253;138428;-83
2023/03/19 09:57:20;;;;;;;15.40;11.20;;;;;;;23.85;22.90;100185.83;104275;1248;96092;-83
2023/03/19 09:59:48;;;;;;;16.00;11.60;;;;;;;23.65;22.99;100185.77;103565;1250;107672;-80
2023/03/19 10:02:37;;;;;;;17.60;11.60;;;;;;;23.40;22.84;100184.97;103548;1250;138280;-83
2023/03/19 10:05:16;;;;;;;18.30;11.90;;;;;;;23.29;23.13;100186.61;103703;1250;111271;-82
2023/03/19 10:07:58;;;;;;;15.10;11.80;;;;;;;23.20;22.91;100188.83;103537;1251;138322;-82
2023/03/19 10:10:44;;;;;;;16.20;12.00;;;;;;;22.75;22.92;100187.39;103660;1249;97672;-82
2023/03/19 10:13:25;;;;;;;14.90;11.10;;;;;;;22.28;23.28;100191.37;103519;1253;138185;-79
2023/03/19 10:15:53;;;;;;;16.70;11.60;;;;;;;21.86;23.65;100193.86;103534;1253;97775;-79
2023/03/19 10:18:25;;;;;;;19.70;11.20;;;;;;;21.39;24.19;100199.70;103569;1249;138332;-78
2023/03/19 10:20:57;;;;;;;15.10;11.80;;;;;;;21.09;24.66;100196.50;103626;1251;107624;-79
2023/03/19 10:23:40;;;;;;;16.50;11.60;;;;;;;20.96;25.01;100198.58;103648;1252;97765;-79
2023/03/19 10:26:12;;;;;;;15.00;11.00;;;;;;;20.83;25.10;100198.35;103439;1253;137999;-79
2023/03/19 10:28:42;;;;;;;15.50;11.30;;;;;;;20.56;24.76;100195.23;103539;1251;97785;-79
2023/03/19 10:31:25;;;;;;;16.00;10.80;;;;;;;20.21;25.20;100192.34;103504;1250;138104;-78
2023/03/19 10:34:03;;;;;;;14.80;10.60;;;;;;;19.87;25.46;100194.95;103596;1247;109253;-78
2023/03/19 10:36:35;;;;;;;15.40;10.50;;;;;;;19.53;25.90;100198.23;103461;1250;138390;-80
2023/03/19 10:39:06;;;;;;;15.10;10.90;;;;;;;19.43;26.22;100195.58;103561;1253;108246;-77
2023/03/19 10:41:43;;;;;;;18.30;11.40;;;;;;;19.44;26.67;100196.02;103601;1249;97785;-78
2023/03/19 10:44:21;;;;;;;16.40;10.60;;;;;;;19.61;26.83;100197.36;103586;1250;137968;-78
2023/03/19 10:46:49;;;;;;;17.30;10.90;;;;;;;19.85;26.71;100200.23;103668;1249;107642;-66
2023/03/19 10:49:17;;;;;;;15.30;10.20;;;;;;;19.90;26.26;100199.60;103439;1250;138907;-66
2023/03/19 10:51:46;;;;;;;15.90;10.30;;;;;;;20.16;26.56;100199.94;103704;1250;108887;-68
2023/03/19 10:54:24;;;;;;;16.20;10.80;;;;;;;20.67;26.36;100199.00;103518;1250;138436;-72
2023/03/19 10:56:54;;;;;;;13.70;10.50;;;;;;;20.95;25.87;100195.96;103721;1253;111599;-68
2023/03/19 10:59:31;;;;;;;13.30;10.00;;;;;;;21.37;25.54;100194.23;103675;1252;109711;-68
2023/03/19 11:02:02;;;;;;;13.90;9.80;;;;;;;21.43;25.33;100191.45;103520;1254;138377;-68
2023/03/19 11:04:31;;;;;;;14.30;9.80;;;;;;;21.25;24.51;100186.61;103606;1249;109106;-68
2023/03/19 11:07:10;;;;;;;13.30;10.10;;;;;;;20.72;24.73;100184.51;103568;1252;138012;-73
2023/03/19 11:09:38;;;;;;;16.10;10.10;;;;;;;20.44;25.50;100181.81;103705;1253;111972;-75
2023/03/19 11:12:17;;;;;;;15.90;10.70;;;;;;;20.18;25.56;100180.88;103719;1247;108401;-75
2023/03/19 11:14:47;;;;;;;13.90;10.00;;;;;;;19.94;25.88;100176.44;103599;1250;98111;-66